Time;durP1;ratioP1;P1;durP2;ratioP2;P2;SDS_P1;SDS_P2;PMS_P1;PMS_P2;Temp;Humidity;BMP_temperature;BMP_pressure;BME280_temperature;BME280_humidity;BME280_pressure;Samples;Min_cycle;Max_cycle;Signal;HPM_P1;HPM_P2
2023/02/13 00:00:34;;;;;;;45.13;23.65;;;;;;;-0.21;70.87;101415.53;5026544;28;20036;-87
2023/02/13 00:02:59;;;;;;;38.15;21.42;;;;;;;-0.38;70.84;101399.59;5026386;28;20086;-86
2023/02/13 00:05:25;;;;;;;50.10;22.67;;;;;;;-0.47;70.93;101404.78;5060147;28;20035;-86
2023/02/13 00:07:50;;;;;;;40.60;21.27;;;;;;;-0.56;71.03;101408.31;5027139;28;20025;-86
2023/02/13 00:10:16;;;;;;;41.47;21.63;;;;;;;-0.65;71.27;101404.69;5026399;28;20398;-87
2023/02/13 00:12:41;;;;;;;34.05;19.65;;;;;;;-0.69;71.63;101405.13;5060021;28;20460;-87
2023/02/13 00:15:07;;;;;;;36.88;20.27;;;;;;;-0.78;71.60;101412.13;5026808;28;20028;-87
2023/02/13 00:17:32;;;;;;;40.65;21.10;;;;;;;-0.79;71.54;101412.28;5042931;28;20025;-87
2023/02/13 00:19:58;;;;;;;42.60;22.00;;;;;;;-0.95;72.12;101411.06;5026657;28;20486;-87
2023/02/13 00:22:24;;;;;;;36.70;19.77;;;;;;;-0.87;71.85;101424.41;5027313;28;20360;-87
2023/02/13 00:24:49;;;;;;;34.47;19.98;;;;;;;-0.97;72.04;101418.31;5026617;28;20025;-87
2023/02/13 00:27:14;;;;;;;44.28;21.10;;;;;;;-0.81;71.68;101438.84;5059190;28;20034;-86
2023/02/13 00:29:40;;;;;;;36.38;19.95;;;;;;;-0.90;72.42;101429.16;5026265;28;20031;-87
2023/02/13 00:32:05;;;;;;;40.28;20.27;;;;;;;-0.88;72.08;101420.09;5026273;28;20020;-87
2023/02/13 00:34:31;;;;;;;33.88;19.90;;;;;;;-0.98;72.35;101419.25;5025956;28;20036;-86
2023/02/13 00:36:56;;;;;;;42.67;21.08;;;;;;;-0.97;72.91;101433.34;5026727;28;20032;-86
2023/02/13 00:39:22;;;;;;;39.72;20.85;;;;;;;-0.86;72.61;101446.38;5026011;28;20032;-87
2023/02/13 00:41:47;;;;;;;40.97;22.80;;;;;;;-0.99;72.89;101430.84;5026265;28;20032;-87
2023/02/13 00:44:13;;;;;;;44.03;23.00;;;;;;;-0.87;72.72;101447.34;5026072;28;20207;-87
2023/02/13 00:46:38;;;;;;;42.17;21.63;;;;;;;-0.89;72.34;101428.19;5025791;28;20017;-86
2023/02/13 00:49:04;;;;;;;47.47;23.70;;;;;;;-0.76;71.02;101438.44;5025880;28;20056;-86
2023/02/13 00:51:29;;;;;;;41.85;22.52;;;;;;;-0.84;71.19;101428.56;5059066;28;20032;-86
2023/02/13 00:53:55;;;;;;;38.88;20.75;;;;;;;-0.81;71.87;101449.44;5026660;28;20410;-86
2023/02/13 00:56:20;;;;;;;34.28;19.02;;;;;;;-0.98;72.06;101424.56;5058626;28;20099;-86
2023/02/13 00:58:46;;;;;;;38.22;20.88;;;;;;;-0.94;71.84;101440.97;5058981;28;20028;-87
2023/02/13 01:01:11;;;;;;;37.55;20.15;;;;;;;-1.02;72.39;101434.59;5025221;28;20032;-86
2023/02/13 01:03:37;;;;;;;36.75;20.45;;;;;;;-1.05;72.67;101432.22;5025848;28;20020;-86
2023/02/13 01:06:02;;;;;;;42.33;19.63;;;;;;;-1.03;72.49;101435.56;5025643;28;20028;-87
2023/02/13 01:08:28;;;;;;;47.72;21.25;;;;;;;-0.90;71.93;101442.38;5025466;28;20032;-86
2023/02/13 01:10:54;;;;;;;39.80;21.77;;;;;;;-0.99;71.88;101444.06;5026342;28;20032;-87
2023/02/13 01:13:19;;;;;;;46.17;20.63;;;;;;;-1.04;72.22;101439.19;5025792;28;20028;-86
2023/02/13 01:15:45;;;;;;;43.33;20.02;;;;;;;-1.01;72.03;101427.50;5025728;28;20024;-86
2023/02/13 01:18:17;;;;;;;40.40;21.98;;;;;;;-1.04;72.34;101430.41;5058268;28;20449;-86
2023/02/13 01:20:42;;;;;;;44.30;20.60;;;;;;;-1.15;72.24;101426.13;5025579;28;20028;-87
2023/02/13 01:23:08;;;;;;;28.40;17.20;;;;;;;-1.13;72.08;101428.63;5025380;28;20033;-87
2023/02/13 01:25:33;;;;;;;35.88;17.50;;;;;;;-1.14;72.52;101419.00;5024964;28;20039;-87
2023/02/13 01:27:59;;;;;;;33.65;19.08;;;;;;;-1.11;72.47;101431.97;5025552;28;20107;-87
2023/02/13 01:30:24;;;;;;;36.30;18.08;;;;;;;-1.19;72.82;101439.75;5025370;28;20024;-86
2023/02/13 01:32:50;;;;;;;37.03;18.83;;;;;;;-1.27;72.24;101438.63;5025126;28;20499;-87
2023/02/13 01:35:15;;;;;;;33.33;17.23;;;;;;;-1.34;72.72;101434.91;5041779;28;20036;-86
2023/02/13 01:37:41;;;;;;;38.67;17.70;;;;;;;-1.22;72.19;101441.72;5024571;28;20025;-86
2023/02/13 01:40:09;;;;;;;35.22;18.50;;;;;;;-1.10;71.47;101442.41;5041513;28;20025;-87
2023/02/13 01:42:35;;;;;;;29.58;16.75;;;;;;;-1.24;72.36;101438.38;5057366;28;20043;-86
2023/02/13 01:45:05;;;;;;;36.45;20.08;;;;;;;-1.24;72.18;101434.91;5040857;28;20131;-86
2023/02/13 01:47:39;;;;;;;36.83;20.50;;;;;;;-1.15;72.36;101459.66;5051016;28;20040;-86
2023/02/13 01:50:19;;;;;;;33.00;19.13;;;;;;;-1.11;72.09;101458.41;5057624;28;20052;-86
2023/02/13 01:52:47;;;;;;;34.58;19.30;;;;;;;-1.15;72.32;101441.97;5057836;28;20036;-87
2023/02/13 01:55:13;;;;;;;36.90;20.38;;;;;;;-1.14;72.01;101448.09;5041284;28;20028;-87
2023/02/13 01:57:38;;;;;;;32.17;18.55;;;;;;;-1.21;72.86;101455.75;5040962;28;20475;-87
2023/02/13 02:00:12;;;;;;;41.67;20.05;;;;;;;-1.26;72.62;101452.72;5041252;28;20479;-86
2023/02/13 02:02:40;;;;;;;39.97;19.02;;;;;;;-1.33;71.90;101452.44;5041708;28;20024;-87
2023/02/13 02:05:06;;;;;;;36.47;18.98;;;;;;;-1.34;72.05;101465.78;5040750;28;20028;-87
2023/02/13 02:07:32;;;;;;;37.67;20.13;;;;;;;-1.55;72.06;101445.59;5041075;28;20035;-87
2023/02/13 02:09:59;;;;;;;38.22;20.27;;;;;;;-1.61;71.77;101440.88;5041161;28;20020;-86
2023/02/13 02:12:46;;;;;;;38.08;20.20;;;;;;;-1.56;72.10;101459.78;5041181;28;20028;-87
2023/02/13 02:15:11;;;;;;;43.15;21.17;;;;;;;-1.68;72.81;101463.50;5057436;28;20518;-86
2023/02/13 02:17:37;;;;;;;33.90;17.90;;;;;;;-1.65;72.77;101453.50;5044216;28;20028;-87
2023/02/13 02:20:09;;;;;;;35.15;19.42;;;;;;;-1.54;72.15;101455.19;5061042;28;20139;-86
2023/02/13 02:22:55;;;;;;;31.17;17.45;;;;;;;-1.50;72.72;101453.09;5077774;28;20032;-86
2023/02/13 02:25:42;;;;;;;28.15;17.05;;;;;;;-1.49;72.58;101458.25;5078809;28;20085;-86
2023/02/13 02:28:58;;;;;;;36.10;18.00;;;;;;;-1.46;72.94;101465.06;5077334;28;20024;-86
2023/02/13 02:31:42;;;;;;;31.20;17.48;;;;;;;-1.58;72.85;101456.44;4996478;28;20092;-87
2023/02/13 02:34:23;;;;;;;36.58;19.38;;;;;;;-1.72;73.11;101444.47;5070024;28;20093;-86
2023/02/13 02:37:11;;;;;;;28.55;16.77;;;;;;;-1.60;72.62;101450.44;5060221;28;20085;-87
2023/02/13 02:39:43;;;;;;;33.67;18.98;;;;;;;-1.58;73.15;101452.97;5094896;28;20097;-86
2023/02/13 02:42:40;;;;;;;30.15;17.42;;;;;;;-1.51;72.73;101446.16;5060957;28;20028;-86
2023/02/13 02:45:25;;;;;;;39.78;21.73;;;;;;;-1.52;72.47;101447.13;5060642;28;20035;-87
2023/02/13 02:50:58;;;;;;;30.85;18.13;;;;;;;-1.64;72.71;101431.44;5079899;28;20051;-86
2023/02/13 02:54:01;;;;;;;30.48;17.48;;;;;;;-1.57;72.56;101454.66;5059830;28;20028;-87
2023/02/13 02:56:35;;;;;;;;;;;;;;;-1.64;72.77;101457.84;5059703;28;20028;-86
2023/02/13 03:07:26;;;;;;;36.95;17.98;;;;;;;-1.86;72.95;101458.91;5080282;28;20035;-87
2023/02/13 03:15:29;;;;;;;30.17;16.63;;;;;;;-1.48;71.67;101441.44;5066286;28;20113;-87
2023/02/13 03:23:57;;;;;;;24.77;14.10;;;;;;;-1.32;71.92;101430.31;5060592;28;20062;-86
2023/02/13 03:26:44;;;;;;;24.15;13.43;;;;;;;-1.29;72.21;101440.59;5062654;28;20093;-87
2023/02/13 03:32:15;;;;;;;;;;;;;;;-1.31;71.58;101425.84;5094904;28;20043;-86
2023/02/13 03:40:17;;;;;;;19.88;12.50;;;;;;;-1.42;71.30;101417.09;5064800;28;20042;-86
2023/02/13 03:42:53;;;;;;;23.48;12.27;;;;;;;-1.36;71.14;101431.56;5043335;28;20031;-87
2023/02/13 03:50:04;;;;;;;16.27;10.77;;;;;;;-1.36;71.00;101409.59;5065259;28;20050;-86
2023/02/13 03:50:52;;;;;;;24.40;13.23;;;;;;;-1.33;70.62;101423.38;5065178;28;20448;-86
2023/02/13 03:53:17;;;;;;;19.83;11.07;;;;;;;-1.40;69.87;101424.88;5059474;28;20110;-86
2023/02/13 04:01:20;;;;;;;20.95;11.30;;;;;;;-1.56;71.00;101422.78;5065159;28;20031;-87
2023/02/13 04:03:58;;;;;;;21.73;10.32;;;;;;;-1.53;70.60;101433.09;5042824;28;20110;-87
2023/02/13 04:06:31;;;;;;;17.20;10.07;;;;;;;-1.58;70.65;101422.09;5077088;28;20086;-86
2023/02/13 04:08:56;;;;;;;27.83;15.60;;;;;;;-1.55;70.61;101419.19;5030483;28;20487;-86
2023/02/13 04:11:35;;;;;;;31.25;16.00;;;;;;;-1.51;70.83;101440.88;5033073;28;20090;-87
2023/02/13 04:14:10;;;;;;;25.85;12.00;;;;;;;-1.58;70.63;101430.00;5059650;28;20033;-86
2023/02/13 04:16:38;;;;;;;27.48;13.70;;;;;;;-1.49;70.54;101431.84;5049472;28;20167;-86
2023/02/13 04:19:04;;;;;;;18.13;11.40;;;;;;;-1.46;70.29;101436.00;5026674;28;20036;-86
2023/02/13 04:21:36;;;;;;;18.98;10.10;;;;;;;-1.50;70.57;101446.00;5043225;28;20028;-86
2023/02/13 04:24:02;;;;;;;23.30;9.82;;;;;;;-1.47;70.41;101448.38;5026839;28;20020;-86
2023/02/13 04:26:32;;;;;;;23.52;11.48;;;;;;;-1.42;70.74;101447.97;5026099;28;20497;-87
2023/02/13 04:28:58;;;;;;;20.52;11.68;;;;;;;-1.64;70.81;101430.56;5026745;28;20035;-87
2023/02/13 04:31:23;;;;;;;30.92;14.02;;;;;;;-1.72;70.58;101436.56;5042927;28;20028;-87
2023/02/13 04:33:49;;;;;;;27.45;13.63;;;;;;;-1.81;71.02;101431.25;5026144;28;20043;-86
2023/02/13 04:36:14;;;;;;;23.52;12.43;;;;;;;-1.72;70.66;101444.47;5025904;28;20033;-86
2023/02/13 04:38:39;;;;;;;29.45;14.48;;;;;;;-1.86;71.10;101434.31;5042492;28;20036;-87
2023/02/13 04:41:05;;;;;;;27.65;12.98;;;;;;;-1.79;71.35;101443.34;5025801;28;20032;-86
2023/02/13 04:43:30;;;;;;;28.73;14.15;;;;;;;-1.90;71.10;101432.91;5056038;28;20031;-87
2023/02/13 04:45:56;;;;;;;29.50;15.23;;;;;;;-1.97;71.07;101429.13;5047553;28;20082;-86
2023/02/13 04:48:21;;;;;;;27.67;16.77;;;;;;;-1.90;71.78;101441.66;5045747;28;20031;-86
2023/02/13 04:50:47;;;;;;;27.73;15.00;;;;;;;-1.93;71.52;101434.03;5045307;28;20138;-86
2023/02/13 04:53:12;;;;;;;28.63;15.50;;;;;;;-2.04;72.36;101429.66;5062379;28;20028;-86
2023/02/13 04:55:38;;;;;;;30.90;16.63;;;;;;;-2.08;72.57;101432.72;5045592;28;20032;-86
2023/02/13 04:58:03;;;;;;;33.15;16.60;;;;;;;-1.99;72.57;101441.63;5045313;28;20065;-86
2023/02/13 05:00:29;;;;;;;32.28;16.50;;;;;;;-1.92;72.25;101442.78;5062393;28;20035;-88
2023/02/13 05:03:08;;;;;;;28.20;15.93;;;;;;;-1.84;71.72;101429.72;5045977;28;20031;-87
2023/02/13 05:05:34;;;;;;;26.27;14.80;;;;;;;-1.85;71.44;101435.97;5058386;28;20545;-89
2023/02/13 05:08:00;;;;;;;28.55;15.40;;;;;;;-1.76;71.94;101443.09;5065814;28;20028;-86
2023/02/13 05:10:25;;;;;;;32.10;16.77;;;;;;;-1.74;71.59;101451.69;5066348;28;20036;-86
2023/02/13 05:12:51;;;;;;;38.22;17.73;;;;;;;-1.66;71.44;101446.56;5082638;28;20114;-86
2023/02/13 05:15:16;;;;;;;28.55;14.95;;;;;;;-1.60;71.28;101446.97;5065489;28;20470;-86
2023/02/13 05:17:45;;;;;;;26.10;14.40;;;;;;;-1.62;71.24;101436.53;5065395;28;20015;-87
2023/02/13 05:20:11;;;;;;;30.05;14.85;;;;;;;-1.59;71.24;101438.94;5063481;28;20024;-86
2023/02/13 05:25:21;;;;;;;28.17;16.08;;;;;;;-1.60;70.70;101425.84;5072320;28;20037;-86
2023/02/13 05:27:46;;;;;;;76.70;21.55;;;;;;;-1.61;70.04;101440.88;5041564;28;20024;-87
2023/02/13 05:30:12;;;;;;;33.22;17.98;;;;;;;-1.62;70.30;101455.03;5042158;28;20581;-88
2023/02/13 05:32:38;;;;;;;31.15;16.85;;;;;;;-1.68;70.06;101437.94;5025314;28;20032;-88
2023/02/13 05:35:04;;;;;;;31.55;16.45;;;;;;;-1.54;69.63;101454.34;5025580;28;20097;-89
2023/02/13 05:37:30;;;;;;;30.00;18.88;;;;;;;-1.74;70.10;101441.13;5025577;28;20037;-88
2023/02/13 05:39:55;;;;;;;31.48;16.38;;;;;;;-1.87;70.46;101443.19;5025875;28;20132;-89
2023/02/13 05:42:21;;;;;;;31.38;18.42;;;;;;;-1.80;70.47;101446.97;5036106;28;20019;-87
2023/02/13 05:44:46;;;;;;;33.08;18.45;;;;;;;-1.98;70.06;101427.47;5056857;28;20024;-88
2023/02/13 05:47:12;;;;;;;25.85;16.27;;;;;;;-1.65;70.44;101481.72;5032644;28;20024;-87
2023/02/13 05:49:37;;;;;;;38.70;18.27;;;;;;;-1.61;69.71;101492.88;5044953;28;20048;-88
2023/02/13 05:52:03;;;;;;;33.92;18.00;;;;;;;-1.75;70.15;101470.31;5045503;28;20039;-86
2023/02/13 05:54:28;;;;;;;32.25;17.88;;;;;;;-1.95;70.34;101475.56;5046398;28;20027;-87
2023/02/13 05:56:54;;;;;;;32.85;15.85;;;;;;;-1.93;70.53;101473.63;5045874;28;20040;-87
2023/02/13 05:59:19;;;;;;;29.27;15.43;;;;;;;-1.81;69.78;101476.97;5048287;28;20039;-88
2023/02/13 06:01:45;;;;;;;35.92;21.58;;;;;;;-1.92;69.60;101450.69;5033736;28;20107;-87
2023/02/13 06:04:10;;;;;;;31.98;18.10;;;;;;;-1.91;70.11;101441.78;5038999;28;20558;-88
2023/02/13 06:06:36;;;;;;;22.25;13.35;;;;;;;-1.80;70.11;101468.09;5030952;28;20036;-87
2023/02/13 06:09:01;;;;;;;27.35;14.35;;;;;;;-1.92;69.93;101463.88;5045148;28;20089;-87
2023/02/13 06:11:27;;;;;;;32.72;15.77;;;;;;;-1.65;70.01;101482.56;5044060;28;20055;-87
2023/02/13 06:13:52;;;;;;;35.25;17.33;;;;;;;-1.51;69.63;101476.06;5044308;28;20027;-87
2023/02/13 06:16:18;;;;;;;28.58;17.45;;;;;;;-1.56;69.72;101474.78;5044821;28;20024;-87
2023/02/13 06:18:43;;;;;;;31.58;17.25;;;;;;;-1.48;69.78;101481.06;5043963;28;20058;-89
2023/02/13 06:21:09;;;;;;;34.70;15.95;;;;;;;-1.48;70.12;101478.41;5061072;28;20031;-89
2023/02/13 06:23:34;;;;;;;31.98;16.80;;;;;;;-1.49;70.16;101479.41;5044915;28;20027;-86
2023/02/13 06:26:04;;;;;;;30.85;15.18;;;;;;;-1.40;70.10;101492.75;5044441;28;20036;-87
2023/02/13 06:28:33;;;;;;;32.80;15.38;;;;;;;-1.48;70.45;101457.28;5063955;28;20024;-85
2023/02/13 06:30:58;;;;;;;31.20;18.50;;;;;;;-1.31;70.39;101482.16;5045925;28;20093;-88
2023/02/13 06:33:24;;;;;;;34.10;16.05;;;;;;;-1.60;70.60;101460.19;5045987;28;20466;-88
2023/02/13 06:35:49;;;;;;;35.72;18.35;;;;;;;-1.64;71.06;101459.63;5045239;28;20032;-90
2023/02/13 06:38:18;;;;;;;32.30;17.48;;;;;;;-1.70;71.33;101458.38;5045241;28;20028;-90
2023/02/13 06:40:47;;;;;;;32.80;19.88;;;;;;;-1.48;70.28;101467.00;5072850;28;20624;-92
2023/02/13 06:43:13;;;;;;;33.67;16.70;;;;;;;-1.34;69.25;101463.13;5052919;28;20060;-90
2023/02/13 06:45:39;;;;;;;26.63;16.35;;;;;;;-1.10;69.33;101471.47;5052338;28;20030;-90
2023/02/13 06:48:05;;;;;;;28.20;16.83;;;;;;;-1.19;69.59;101445.06;5049059;28;20024;-88
2023/02/13 06:50:33;;;;;;;32.13;15.98;;;;;;;-0.87;69.10;101468.50;5049170;28;20493;-89
2023/02/13 06:52:59;;;;;;;31.25;16.25;;;;;;;-0.65;68.29;101481.41;5049712;28;20028;-90
2023/02/13 06:55:27;;;;;;;30.23;17.08;;;;;;;-0.93;68.70;101480.50;5047159;28;20032;-89
2023/02/13 06:57:53;;;;;;;33.00;16.17;;;;;;;-0.94;68.97;101467.41;5049742;28;20031;-92
2023/02/13 07:00:21;;;;;;;31.20;16.80;;;;;;;-0.85;69.14;101446.25;5076447;28;20032;-89
2023/02/13 07:02:50;;;;;;;43.75;21.92;;;;;;;-0.52;67.99;101497.00;5060142;28;20032;-93
2023/02/13 07:05:16;;;;;;;35.28;18.55;;;;;;;-0.55;68.96;101491.16;5076470;28;20504;-88
2023/02/13 07:07:42;;;;;;;43.17;21.38;;;;;;;-0.64;68.79;101485.75;5054744;28;20036;-88
2023/02/13 07:10:11;;;;;;;36.00;18.05;;;;;;;-0.51;68.77;101498.66;5042295;28;20059;-88
2023/02/13 07:12:36;;;;;;;31.45;15.13;;;;;;;-0.43;68.26;101498.78;5035554;28;20050;-87
2023/02/13 07:15:05;;;;;;;24.70;14.02;;;;;;;-0.29;67.45;101480.75;5041076;28;20036;-88
2023/02/13 07:17:41;;;;;;;29.50;15.77;;;;;;;-0.02;66.44;101462.25;5043044;28;20025;-90
2023/02/13 07:20:07;;;;;;;25.33;13.77;;;;;;;0.24;64.51;101474.78;5044261;28;20558;-87
2023/02/13 07:22:35;;;;;;;28.63;14.65;;;;;;;0.40;64.31;101482.09;5044577;28;20024;-87
2023/02/13 07:25:01;;;;;;;29.55;13.82;;;;;;;0.51;64.15;101489.81;5034709;28;20032;-88
2023/02/13 07:27:28;;;;;;;33.00;15.15;;;;;;;0.50;64.20;101474.91;5028271;28;20039;-86
2023/02/13 07:29:55;;;;;;;27.23;16.27;;;;;;;0.57;63.77;101462.69;5031113;28;20470;-87
2023/02/13 07:32:30;;;;;;;31.17;15.77;;;;;;;0.56;63.61;101458.41;5035664;28;20044;-88
2023/02/13 07:34:55;;;;;;;30.92;16.20;;;;;;;0.67;64.21;101449.38;5043169;28;20040;-87
2023/02/13 07:37:21;;;;;;;29.30;15.70;;;;;;;0.75;63.97;101475.13;5029775;28;20033;-88
2023/02/13 07:39:53;;;;;;;31.85;17.38;;;;;;;0.71;63.66;101474.59;5052172;28;20098;-86
2023/02/13 07:42:19;;;;;;;29.25;16.80;;;;;;;0.74;64.05;101468.97;5042448;28;20039;-91
2023/02/13 07:44:44;;;;;;;34.60;19.65;;;;;;;1.03;63.31;101472.38;5040291;28;20032;-91
2023/02/13 07:47:10;;;;;;;53.33;31.80;;;;;;;1.19;62.87;101456.59;5038920;28;20029;-90
2023/02/13 07:49:36;;;;;;;35.58;18.05;;;;;;;1.20;62.78;101458.22;5031457;28;20475;-91
2023/02/13 07:52:03;;;;;;;34.60;18.30;;;;;;;1.28;62.74;101434.41;5043194;28;20104;-85
2023/02/13 07:54:31;;;;;;;33.95;17.45;;;;;;;1.53;60.92;101448.66;5040945;28;20028;-87
2023/02/13 07:56:59;;;;;;;31.15;18.75;;;;;;;1.82;61.84;101471.38;5047351;28;20107;-89
2023/02/13 07:59:30;;;;;;;35.15;19.75;;;;;;;1.88;61.18;101446.00;5033513;28;20025;-88
2023/02/13 08:02:12;;;;;;;46.28;24.30;;;;;;;2.08;60.76;101458.03;5041039;28;20024;-86
2023/02/13 08:04:39;;;;;;;36.40;19.80;;;;;;;2.21;59.81;101461.06;5046762;28;20020;-87
2023/02/13 08:07:08;;;;;;;37.17;19.17;;;;;;;2.29;59.01;101438.16;5039093;28;20024;-86
2023/02/13 08:12:30;;;;;;;39.70;20.85;;;;;;;2.48;58.95;101467.09;5070174;28;20062;-91
2023/02/13 08:15:11;;;;;;;42.67;19.35;;;;;;;2.61;59.05;101440.03;5070878;28;20480;-94
2023/02/13 08:18:17;;;;;;;44.15;22.98;;;;;;;2.83;58.62;101462.50;5084557;28;20106;-96
2023/02/13 08:20:43;;;;;;;50.90;26.23;;;;;;;2.85;58.36;101452.50;5074856;28;20028;-92
2023/02/13 08:23:10;;;;;;;37.83;20.85;;;;;;;2.90;57.06;101426.22;5057038;28;20028;-92
2023/02/13 08:29:00;;;;;;;40.58;23.67;;;;;;;3.10;56.81;101418.72;5119655;28;20046;-94
2023/02/13 08:31:38;;;;;;;82.68;43.17;;;;;;;3.15;57.18;101413.72;5079200;28;20059;-93
2023/02/13 08:34:14;;;;;;;46.80;24.70;;;;;;;3.17;56.82;101394.94;5076806;28;20502;-96
2023/02/13 08:36:48;;;;;;;42.63;22.73;;;;;;;3.17;57.76;101403.72;5018314;28;20106;-95
2023/02/13 08:39:14;;;;;;;37.15;21.25;;;;;;;3.32;57.60;101405.69;5012955;28;20089;-93
2023/02/13 08:41:54;;;;;;;41.65;22.38;;;;;;;3.47;56.72;101421.81;5026886;28;20040;-87
2023/02/13 08:44:33;;;;;;;44.83;23.40;;;;;;;3.64;57.15;101440.22;5012860;28;20035;-96
2023/02/13 08:50:37;;;;;;;39.72;21.00;;;;;;;3.80;54.92;101409.22;5013104;28;20077;-91
2023/02/13 08:53:06;;;;;;;47.15;27.40;;;;;;;3.76;54.41;101386.59;5007043;28;20041;-92
2023/02/13 08:55:34;;;;;;;41.17;22.88;;;;;;;4.03;53.92;101412.75;5009233;28;20033;-96
2023/02/13 08:58:03;;;;;;;41.05;22.48;;;;;;;4.01;54.21;101389.94;5008298;28;20101;-92
2023/02/13 09:00:32;;;;;;;43.22;23.65;;;;;;;4.13;54.42;101409.03;4995683;28;20076;-95
2023/02/13 09:03:05;;;;;;;54.35;25.38;;;;;;;4.21;54.64;101398.31;5029057;28;20017;-92
2023/02/13 09:05:42;;;;;;;43.97;22.80;;;;;;;4.39;54.81;101398.84;5006977;28;20487;-93
2023/02/13 09:08:10;;;;;;;51.15;25.85;;;;;;;4.65;54.55;101411.84;5011094;28;20021;-94
2023/02/13 09:11:00;;;;;;;47.78;26.98;;;;;;;4.60;53.62;101371.53;4996819;28;20025;-94
2023/02/13 09:13:26;;;;;;;41.00;23.08;;;;;;;4.76;53.10;101370.56;5010750;28;20033;-93
2023/02/13 09:15:51;;;;;;;41.20;22.38;;;;;;;4.98;53.39;101392.88;4993970;28;20030;-94
2023/02/13 09:18:23;;;;;;;53.45;30.17;;;;;;;4.98;54.18;101398.22;5002244;28;20025;-96
2023/02/13 09:20:49;;;;;;;47.10;25.58;;;;;;;5.27;53.26;101412.59;5026887;28;20034;-92
2023/02/13 09:23:23;;;;;;;38.88;21.95;;;;;;;5.27;52.46;101396.56;4993396;28;20126;-95
2023/02/13 09:26:09;;;;;;;39.08;22.02;;;;;;;5.35;52.37;101376.97;5000282;28;20026;-95
2023/02/13 09:28:36;;;;;;;36.20;19.98;;;;;;;5.61;52.70;101390.69;5000808;28;20192;-95
2023/02/13 09:31:18;;;;;;;48.40;25.17;;;;;;;5.84;52.13;101395.91;4998741;28;20089;-94
2023/02/13 09:34:07;;;;;;;39.08;21.83;;;;;;;5.95;52.00;101381.25;5055194;28;20031;-95
2023/02/13 09:39:30;;;;;;;28.90;17.55;;;;;;;6.12;51.18;101365.81;5339243;22;20057;-93
2023/02/13 09:42:02;;;;;;;28.30;16.08;;;;;;;6.18;49.77;101348.16;5108899;28;20031;-94
2023/02/13 09:44:42;;;;;;;22.42;13.93;;;;;;;6.34;49.57;101382.69;5093064;28;20040;-96
2023/02/13 09:47:40;;;;;;;32.20;15.40;;;;;;;6.17;49.91;101355.38;5108544;28;20027;-95
2023/02/13 09:50:48;;;;;;;22.17;13.73;;;;;;;6.45;49.81;101371.50;5120346;28;20047;-95
2023/02/13 09:53:35;;;;;;;24.25;14.40;;;;;;;6.29;50.26;101320.94;5082264;28;20155;-93
2023/02/13 09:56:11;;;;;;;27.10;14.75;;;;;;;6.73;49.71;101361.84;5090053;28;20046;-95
2023/02/13 09:58:57;;;;;;;25.55;14.88;;;;;;;6.67;49.97;101321.44;5107183;28;20091;-92
2023/02/13 10:01:47;;;;;;;26.05;14.95;;;;;;;7.01;49.69;101354.63;5102389;28;20020;-93
2023/02/13 10:04:51;;;;;;;25.85;13.85;;;;;;;7.13;48.62;101349.56;5089698;28;20056;-92
2023/02/13 10:07:35;;;;;;;26.45;14.07;;;;;;;7.22;48.63;101344.84;5227370;22;20123;-90
2023/02/13 10:10:33;;;;;;;22.42;13.32;;;;;;;6.95;48.83;101301.88;5084900;28;20035;-93
2023/02/13 10:13:25;;;;;;;20.23;12.45;;;;;;;7.14;47.91;101332.47;5034782;28;20023;-93
2023/02/13 10:16:00;;;;;;;21.75;11.60;;;;;;;6.95;47.97;101287.63;5079145;28;20032;-95
2023/02/13 10:18:48;;;;;;;29.63;15.55;;;;;;;7.19;48.49;101315.81;5048804;28;20117;-96
2023/02/13 10:21:30;;;;;;;26.90;13.75;;;;;;;7.07;48.96;101284.19;5049520;28;20040;-96
2023/02/13 10:24:07;;;;;;;25.70;14.77;;;;;;;7.17;49.20;101288.38;5051547;28;20029;-96
2023/02/13 10:26:48;;;;;;;29.33;14.15;;;;;;;7.34;48.64;101297.72;5047890;28;20139;-96
2023/02/13 10:32:06;;;;;;;28.70;13.98;;;;;;;7.15;49.19;101288.56;5099905;28;20046;-94
2023/02/13 10:34:36;;;;;;;20.10;12.47;;;;;;;7.46;49.10;101314.06;5045672;28;20032;-88
2023/02/13 10:37:13;;;;;;;24.55;14.35;;;;;;;7.40;48.46;101275.50;5048277;28;20028;-90
2023/02/13 10:39:50;;;;;;;22.52;13.70;;;;;;;7.40;49.01;101263.94;5102591;27;20068;-88
2023/02/13 10:42:28;;;;;;;23.63;14.68;;;;;;;7.75;47.60;101309.44;5053143;28;20402;-87
2023/02/13 10:45:09;;;;;;;29.35;13.75;;;;;;;7.68;47.56;101307.56;5080436;28;20028;-87
2023/02/13 10:47:44;;;;;;;23.33;12.68;;;;;;;7.71;47.63;101297.47;5078367;28;20020;-86
2023/02/13 10:50:22;;;;;;;44.50;24.73;;;;;;;7.66;48.36;101293.53;5076802;28;20077;-87
2023/02/13 10:52:58;;;;;;;21.40;13.50;;;;;;;7.70;48.30;101293.97;5078444;28;20031;-85
2023/02/13 10:55:30;;;;;;;25.23;14.75;;;;;;;7.66;47.59;101290.03;5078826;28;20034;-86
2023/02/13 10:58:25;;;;;;;24.65;14.20;;;;;;;7.66;48.26;101288.16;5079446;28;20039;-86
2023/02/13 11:00:51;;;;;;;26.52;14.48;;;;;;;7.71;48.48;101279.50;5075539;28;20111;-86
2023/02/13 11:03:19;;;;;;;26.48;14.45;;;;;;;7.63;47.49;101271.66;5079852;28;20051;-84
2023/02/13 11:05:46;;;;;;;24.45;14.40;;;;;;;7.53;47.99;101281.94;5049602;28;20051;-86
2023/02/13 11:08:46;;;;;;;23.55;13.95;;;;;;;7.51;48.25;101274.06;5044156;28;20063;-87
2023/02/13 11:11:50;;;;;;;23.00;13.80;;;;;;;7.63;48.79;101274.34;5060681;28;20073;-86
2023/02/13 11:14:20;;;;;;;28.17;14.65;;;;;;;7.49;49.14;101249.31;4981522;28;20029;-85
2023/02/13 11:17:08;;;;;;;29.23;14.90;;;;;;;7.35;49.04;101242.31;5048192;28;20052;-85
2023/02/13 11:19:39;;;;;;;27.13;14.40;;;;;;;7.45;49.31;101259.66;5047966;28;20127;-86
2023/02/13 11:22:13;;;;;;;32.70;17.10;;;;;;;7.36;49.48;101225.19;5044062;28;20028;-86
2023/02/13 11:24:49;;;;;;;24.13;14.23;;;;;;;7.45;48.59;101226.63;5029481;28;20101;-86
2023/02/13 11:27:23;;;;;;;22.30;13.82;;;;;;;7.38;48.39;101210.53;5032020;28;20017;-86
2023/02/13 11:29:56;;;;;;;26.42;14.75;;;;;;;7.67;48.50;101256.81;5045446;28;20025;-85
2023/02/13 11:32:23;;;;;;;24.23;14.27;;;;;;;7.68;48.66;101237.03;5029406;28;20441;-85
2023/02/13 11:34:53;;;;;;;28.45;15.18;;;;;;;7.58;48.48;101237.41;5028251;28;20028;-86
2023/02/13 11:37:30;;;;;;;23.95;14.00;;;;;;;7.54;48.34;101214.72;5029336;28;20119;-87
2023/02/13 11:39:57;;;;;;;26.38;14.63;;;;;;;7.57;48.82;101216.97;5045718;28;20020;-86
2023/02/13 11:42:30;;;;;;;26.85;14.70;;;;;;;7.73;48.63;101233.72;5042909;28;20034;-87
2023/02/13 11:45:26;;;;;;;24.95;14.50;;;;;;;7.81;48.38;101231.69;5064903;28;20023;-91
2023/02/13 11:47:55;;;;;;;27.45;15.75;;;;;;;7.80;48.49;101211.28;5050737;28;20036;-85
2023/02/13 11:50:33;;;;;;;27.33;15.35;;;;;;;7.94;48.36;101236.22;5041590;28;20035;-90
2023/02/13 11:53:07;;;;;;;25.08;14.70;;;;;;;7.68;48.74;101204.84;5079577;28;20062;-86
2023/02/13 11:55:36;;;;;;;24.17;13.70;;;;;;;7.62;48.54;101201.13;5045291;28;20040;-86
2023/02/13 11:58:26;;;;;;;27.13;14.90;;;;;;;7.94;48.59;101220.13;5033992;28;20031;-88
2023/02/13 12:01:10;;;;;;;24.33;14.93;;;;;;;7.82;48.47;101211.03;5048638;28;20039;-86
2023/02/13 12:06:38;;;;;;;28.55;15.50;;;;;;;7.67;49.55;101185.25;5063577;28;20066;-86
2023/02/13 12:09:15;;;;;;;28.38;15.57;;;;;;;7.68;49.04;101186.91;5083372;28;20080;-85
2023/02/13 12:11:51;;;;;;;27.52;15.20;;;;;;;7.71;49.24;101182.16;5056701;28;20070;-95
2023/02/13 12:14:43;;;;;;;30.23;16.27;;;;;;;7.81;49.15;101204.84;5051979;28;20036;-93
2023/02/13 12:18:03;;;;;;;32.58;19.33;;;;;;;7.82;49.08;101184.22;5055726;28;20080;-93
2023/02/13 12:21:05;;;;;;;33.83;17.77;;;;;;;7.92;49.61;101190.00;5091255;28;20036;-96
2023/02/13 12:24:04;;;;;;;37.80;18.40;;;;;;;7.86;49.37;101186.31;5068398;28;20389;-94
2023/02/13 12:26:44;;;;;;;37.50;19.75;;;;;;;7.68;49.78;101149.38;5054046;28;20017;-94
2023/02/13 12:29:17;;;;;;;24.48;15.32;;;;;;;7.79;48.62;101155.16;5047547;28;20020;-94
2023/02/13 12:32:22;;;;;;;30.45;17.50;;;;;;;7.97;49.22;101178.66;5067853;28;20024;-94
2023/02/13 12:34:59;;;;;;;26.48;15.15;;;;;;;7.98;49.17;101172.28;5073435;28;20034;-94
2023/02/13 12:37:40;;;;;;;29.80;16.50;;;;;;;8.02;49.34;101168.97;5092670;27;20012;-93